createdAt,value
2018-12-08T21:42:50.160Z,23.96
2018-12-08T21:47:56.742Z,16.63
2018-12-08T21:50:26.467Z,14.99
2018-12-08T21:52:55.839Z,13.31
2018-12-08T21:55:25.129Z,12.79
2018-12-08T21:57:54.432Z,12.30
2018-12-08T22:00:23.731Z,11.90
2018-12-08T22:02:53.130Z,11.90
2018-12-08T22:05:22.402Z,11.59
2018-12-08T22:07:51.923Z,11.52
2018-12-08T22:10:21.125Z,11.63
2018-12-08T22:12:50.440Z,11.56
2018-12-08T22:15:19.568Z,11.57
2018-12-08T22:17:48.829Z,11.78
2018-12-08T22:20:18.145Z,11.51
2018-12-08T22:22:47.527Z,11.34
2018-12-08T22:25:16.696Z,11.33
2018-12-08T22:27:45.948Z,11.32
2018-12-08T22:30:15.328Z,11.45
2018-12-08T22:32:44.534Z,11.41
2018-12-08T22:35:13.741Z,11.43
2018-12-08T22:37:42.864Z,11.30
2018-12-08T22:40:12.693Z,11.44
2018-12-08T22:42:41.903Z,11.37
2018-12-08T22:45:11.256Z,11.31
2018-12-08T22:47:40.550Z,11.48
2018-12-08T22:50:09.773Z,11.53
2018-12-08T22:52:38.872Z,11.43
2018-12-08T22:55:07.985Z,11.53
2018-12-08T22:57:37.186Z,11.47
2018-12-08T23:00:12.897Z,11.44
2018-12-08T23:02:42.277Z,11.42
2018-12-08T23:05:12.003Z,11.56
2018-12-08T23:07:41.393Z,11.80
2018-12-08T23:10:10.692Z,11.99
2018-12-08T23:12:39.955Z,12.06
2018-12-08T23:15:09.848Z,12.12
2018-12-08T23:17:39.119Z,12.10
2018-12-08T23:20:08.409Z,11.80
2018-12-08T23:22:37.814Z,11.78
2018-12-08T23:25:07.115Z,11.57
2018-12-08T23:27:36.888Z,11.52
2018-12-08T23:30:06.336Z,11.50
2018-12-08T23:32:35.700Z,11.42
2018-12-08T23:35:05.163Z,11.38
2018-12-08T23:37:34.432Z,11.33
2018-12-08T23:40:03.636Z,11.35
2018-12-08T23:42:32.903Z,11.11
2018-12-08T23:45:02.112Z,10.94
2018-12-08T23:47:31.260Z,11.09
2018-12-08T23:50:00.531Z,10.98
2018-12-08T23:52:29.937Z,10.92
2018-12-08T23:54:59.133Z,10.84
2018-12-08T23:57:28.333Z,10.85
2018-12-08T23:59:57.519Z,10.81
